createdAt,value
2018-06-16T00:01:36.999Z,8.30
2018-06-16T00:04:05.907Z,6.97
2018-06-16T00:06:34.552Z,10.50
2018-06-16T00:09:03.343Z,6.30
2018-06-16T00:11:31.904Z,8.53
2018-06-16T00:14:00.521Z,9.23
2018-06-16T00:16:29.086Z,7.27
2018-06-16T00:18:57.682Z,8.20
2018-06-16T00:21:26.258Z,11.17
2018-06-16T00:23:54.825Z,8.83
2018-06-16T00:26:23.545Z,9.57
2018-06-16T00:28:52.264Z,8.93
2018-06-16T00:31:20.841Z,8.43
2018-06-16T00:33:49.461Z,8.77
2018-06-16T00:36:17.772Z,8.40
2018-06-16T00:38:46.838Z,12.17
2018-06-16T00:41:15.439Z,8.00
2018-06-16T00:43:44.007Z,7.20
2018-06-16T00:46:12.601Z,11.47
2018-06-16T00:48:41.210Z,9.60
2018-06-16T00:51:10.098Z,10.53
2018-06-16T00:53:38.733Z,9.47
2018-06-16T00:56:07.302Z,12.83
2018-06-16T00:58:35.953Z,10.33
2018-06-16T01:01:04.540Z,11.50
2018-06-16T01:03:33.120Z,16.73
2018-06-16T01:06:01.685Z,12.53
2018-06-16T01:08:30.280Z,10.67
2018-06-16T01:10:58.850Z,14.27
2018-06-16T01:13:27.929Z,11.97
2018-06-16T01:15:56.510Z,7.70
2018-06-16T01:18:25.070Z,7.57
2018-06-16T01:20:53.658Z,11.47
2018-06-16T01:23:22.196Z,7.50
2018-06-16T01:25:50.787Z,7.17
2018-06-16T01:28:19.348Z,13.13
2018-06-16T01:30:47.556Z,11.63
2018-06-16T01:33:16.093Z,8.20
2018-06-16T01:35:44.348Z,10.63
2018-06-16T01:38:12.921Z,10.47
2018-06-16T01:40:41.486Z,9.07
2018-06-16T01:43:10.021Z,7.17
2018-06-16T01:45:38.601Z,10.90
2018-06-16T01:48:07.150Z,9.40
2018-06-16T01:50:35.735Z,8.37
2018-06-16T01:53:04.283Z,8.43
2018-06-16T01:55:33.483Z,14.37
2018-06-16T01:58:03.476Z,8.87
2018-06-16T02:00:31.687Z,7.67
2018-06-16T02:03:00.584Z,6.83
2018-06-16T02:05:29.142Z,7.37
2018-06-16T02:07:58.352Z,8.33
2018-06-16T02:10:27.066Z,9.93
2018-06-16T02:12:55.587Z,9.63
2018-06-16T02:15:24.896Z,7.33
2018-06-16T02:17:53.077Z,7.83
2018-06-16T02:20:21.621Z,13.10
2018-06-16T02:22:50.749Z,7.80
2018-06-16T02:25:19.313Z,6.97
2018-06-16T02:27:47.858Z,7.30
2018-06-16T02:30:16.413Z,11.37
2018-06-16T02:32:44.613Z,8.77
2018-06-16T02:35:13.829Z,9.03
2018-06-16T02:37:42.371Z,7.43
2018-06-16T02:40:10.593Z,8.33
2018-06-16T02:42:39.108Z,6.50
2018-06-16T02:45:07.653Z,7.73
2018-06-16T02:47:36.276Z,8.03
2018-06-16T02:50:04.942Z,8.53
2018-06-16T02:52:33.957Z,9.33
2018-06-16T02:55:02.509Z,14.97
2018-06-16T02:57:31.010Z,13.03
2018-06-16T02:59:59.562Z,12.23
2018-06-16T03:02:28.113Z,14.43
2018-06-16T03:04:56.338Z,13.97
2018-06-16T03:07:24.857Z,14.50
2018-06-16T03:09:54.413Z,12.20
2018-06-16T03:12:23.119Z,12.40
2018-06-16T03:14:51.674Z,11.00
2018-06-16T03:17:20.186Z,8.63
2018-06-16T03:19:48.732Z,9.10
2018-06-16T03:22:17.263Z,6.83
2018-06-16T03:24:45.826Z,7.23
2018-06-16T03:27:14.332Z,9.90
2018-06-16T03:29:42.882Z,8.57
2018-06-16T03:32:11.393Z,10.20
2018-06-16T03:34:39.945Z,15.33
2018-06-16T03:37:08.486Z,12.30
2018-06-16T03:39:37.041Z,10.67
2018-06-16T03:42:05.606Z,16.07
2018-06-16T03:44:34.189Z,13.73
2018-06-16T03:47:03.234Z,10.83
2018-06-16T03:49:32.386Z,11.40
2018-06-16T03:52:00.966Z,13.60
2018-06-16T03:54:29.485Z,12.10
2018-06-16T03:56:58.014Z,15.67
2018-06-16T03:59:26.528Z,10.63
2018-06-16T04:01:55.118Z,17.50
2018-06-16T04:04:23.653Z,14.87
2018-06-16T04:06:52.199Z,11.57
2018-06-16T04:09:20.736Z,10.73
2018-06-16T04:11:49.261Z,10.70
2018-06-16T04:14:17.770Z,9.63
2018-06-16T04:16:46.031Z,9.97
2018-06-16T04:19:15.270Z,8.23
2018-06-16T04:21:43.837Z,10.07
2018-06-16T04:24:12.366Z,10.40
2018-06-16T04:26:40.956Z,13.40
2018-06-16T04:29:09.466Z,11.43
2018-06-16T04:31:38.003Z,10.70
2018-06-16T04:34:07.111Z,13.83
2018-06-16T04:36:35.646Z,9.13
2018-06-16T04:39:06.223Z,12.20
2018-06-16T04:41:34.785Z,12.30
2018-06-16T04:44:03.306Z,8.53
2018-06-16T04:46:32.410Z,7.77
2018-06-16T04:49:01.402Z,8.23
2018-06-16T04:51:29.954Z,9.73
2018-06-16T04:53:58.468Z,9.70
2018-06-16T04:56:27.730Z,12.00
2018-06-16T04:58:56.283Z,10.80
2018-06-16T05:01:24.516Z,11.17
2018-06-16T05:03:53.038Z,9.17
2018-06-16T05:06:21.569Z,8.90
2018-06-16T05:08:50.226Z,6.73
2018-06-16T05:11:19.085Z,6.57
2018-06-16T05:13:47.625Z,8.43
2018-06-16T05:16:16.190Z,8.90
2018-06-16T05:18:44.719Z,9.30
2018-06-16T05:21:13.272Z,10.40
2018-06-16T05:23:41.784Z,11.77
2018-06-16T05:26:10.357Z,7.10
2018-06-16T05:28:38.869Z,8.10
2018-06-16T05:31:07.474Z,13.00
2018-06-16T05:33:35.649Z,12.23
2018-06-16T05:36:03.924Z,10.07
2018-06-16T05:38:32.436Z,9.17
2018-06-16T05:41:00.988Z,7.63
2018-06-16T05:43:29.526Z,9.77
2018-06-16T05:45:58.049Z,9.57
2018-06-16T05:48:26.555Z,8.77
2018-06-16T05:50:55.931Z,9.77
2018-06-16T05:53:24.453Z,8.77
2018-06-16T05:55:52.999Z,9.37
2018-06-16T05:58:21.512Z,11.43
2018-06-16T06:00:50.087Z,10.37
2018-06-16T06:03:18.639Z,10.07
2018-06-16T06:05:47.217Z,9.33
2018-06-16T06:08:15.748Z,11.33
2018-06-16T06:10:43.954Z,9.03
2018-06-16T06:13:12.945Z,8.03
2018-06-16T06:15:42.288Z,8.87
2018-06-16T06:18:10.794Z,13.47
2018-06-16T06:20:38.974Z,7.80
2018-06-16T06:34:24.976Z,8.97
2018-06-16T06:36:54.566Z,11.23
2018-06-16T06:39:23.146Z,9.47
2018-06-16T06:41:51.677Z,8.47
2018-06-16T06:44:20.601Z,7.47
2018-06-16T06:46:48.818Z,12.00
2018-06-16T06:49:18.082Z,17.53
2018-06-16T06:51:46.352Z,11.10
2018-06-16T06:54:14.893Z,10.27
2018-06-16T06:56:43.452Z,8.93
2018-06-16T06:59:12.620Z,11.43
2018-06-16T07:01:40.856Z,13.20
2018-06-16T07:04:09.456Z,13.07
2018-06-16T07:06:38.021Z,6.93
2018-06-16T07:09:08.977Z,11.47
2018-06-16T07:11:37.671Z,11.33
2018-06-16T07:14:06.298Z,11.90
2018-06-16T07:16:35.019Z,12.03
2018-06-16T07:19:03.654Z,10.30
2018-06-16T07:21:31.886Z,11.33
2018-06-16T07:24:00.604Z,9.23
2018-06-16T07:26:29.386Z,11.17
2018-06-16T07:28:57.969Z,9.33
2018-06-16T07:31:26.666Z,10.47
2018-06-16T07:33:55.526Z,8.93
2018-06-16T07:36:24.047Z,9.80
2018-06-16T07:38:52.337Z,9.33
2018-06-16T07:41:20.559Z,8.60
2018-06-16T07:43:49.273Z,8.13
2018-06-16T07:46:18.602Z,8.53
2018-06-16T07:48:46.878Z,8.33
2018-06-16T07:51:16.361Z,11.23
2018-06-16T07:53:44.900Z,8.93
2018-06-16T07:56:13.485Z,10.70
2018-06-16T07:58:42.026Z,8.27
2018-06-16T08:01:10.278Z,12.97
2018-06-16T08:03:38.831Z,8.43
2018-06-16T08:06:07.517Z,10.23
2018-06-16T08:08:36.054Z,14.07
2018-06-16T08:11:05.113Z,11.50
2018-06-16T08:13:34.145Z,10.37
2018-06-16T08:16:02.400Z,10.67
2018-06-16T08:18:30.946Z,13.53
2018-06-16T08:20:59.513Z,10.10
2018-06-16T08:23:28.061Z,8.57
2018-06-16T08:25:56.624Z,11.00
2018-06-16T08:28:25.169Z,8.97
2018-06-16T08:30:53.747Z,9.13
2018-06-16T08:33:22.285Z,8.83
2018-06-16T08:35:50.928Z,10.23
2018-06-16T08:38:19.517Z,8.87
2018-06-16T08:40:48.089Z,10.83
2018-06-16T08:43:16.740Z,7.70
2018-06-16T08:45:45.269Z,7.50
2018-06-16T08:48:13.833Z,7.57
2018-06-16T08:50:42.435Z,11.20
2018-06-16T08:53:11.014Z,12.87
2018-06-16T08:55:39.724Z,8.13
2018-06-16T08:58:08.525Z,10.57
2018-06-16T09:00:37.125Z,9.63
2018-06-16T09:03:05.760Z,10.63
2018-06-16T09:05:34.343Z,7.90
2018-06-16T09:08:02.912Z,7.67
2018-06-16T09:10:31.509Z,9.23
2018-06-16T09:13:00.070Z,8.80
2018-06-16T09:15:28.332Z,7.47
2018-06-16T09:17:57.812Z,9.87
2018-06-16T09:20:26.413Z,8.63
2018-06-16T09:22:55.046Z,7.20
2018-06-16T09:25:23.727Z,9.53
2018-06-16T09:27:52.331Z,8.07
2018-06-16T09:30:20.914Z,6.50
2018-06-16T09:32:49.490Z,11.87
2018-06-16T09:35:18.098Z,10.67
2018-06-16T09:37:47.399Z,7.23
2018-06-16T09:40:16.058Z,7.83
2018-06-16T09:42:45.097Z,13.17
2018-06-16T09:45:14.266Z,13.03
2018-06-16T09:47:43.438Z,33.67
2018-06-16T09:50:11.784Z,11.10
2018-06-16T09:52:41.127Z,8.73
2018-06-16T09:55:09.703Z,6.87
2018-06-16T09:57:37.993Z,6.60
2018-06-16T10:00:10.855Z,8.30
2018-06-16T10:02:39.113Z,7.87
2018-06-16T10:05:07.725Z,9.20
2018-06-16T10:07:35.999Z,7.27
2018-06-16T10:10:04.287Z,5.90
2018-06-16T10:12:32.522Z,6.97
2018-06-16T10:15:01.135Z,5.00
2018-06-16T10:17:36.579Z,7.00
2018-06-16T10:20:04.816Z,5.53
2018-06-16T10:22:33.534Z,6.13
2018-06-16T10:25:02.082Z,7.27
2018-06-16T10:27:30.721Z,5.70
2018-06-16T10:29:58.944Z,5.60
2018-06-16T10:32:27.542Z,7.10
2018-06-16T10:34:56.217Z,3.93
2018-06-16T10:37:25.182Z,15.83
2018-06-16T10:39:53.749Z,4.60
2018-06-16T10:42:22.184Z,2.87
2018-06-16T10:44:50.782Z,3.43
2018-06-16T10:47:19.828Z,4.27
2018-06-16T10:49:48.422Z,4.97
2018-06-16T10:52:17.005Z,3.67
2018-06-16T10:54:45.599Z,4.63
2018-06-16T10:57:14.283Z,11.00
2018-06-16T10:59:43.438Z,6.07
2018-06-16T11:02:12.094Z,4.00
2018-06-16T11:04:40.696Z,5.37
2018-06-16T11:07:09.234Z,4.00
2018-06-16T11:09:38.461Z,5.67
2018-06-16T11:12:07.013Z,5.30
2018-06-16T11:14:36.090Z,6.17
2018-06-16T11:17:05.262Z,5.53
2018-06-16T11:19:33.823Z,4.73
2018-06-16T11:22:03.113Z,6.43
2018-06-16T11:24:31.910Z,7.47
2018-06-16T11:27:00.488Z,4.43
2018-06-16T11:29:29.090Z,6.33
2018-06-16T11:31:57.623Z,4.20
2018-06-16T11:34:26.203Z,4.90
2018-06-16T11:36:54.771Z,7.43
2018-06-16T11:39:23.058Z,5.37
2018-06-16T11:41:51.636Z,6.07
2018-06-16T11:44:19.873Z,5.10
2018-06-16T11:46:50.109Z,5.77
2018-06-16T11:49:19.942Z,5.87
2018-06-16T11:51:49.262Z,4.50
2018-06-16T11:54:18.385Z,6.77
2018-06-16T11:56:46.958Z,4.00
2018-06-16T11:59:15.557Z,3.90
2018-06-16T12:01:44.105Z,4.83
2018-06-16T12:04:12.720Z,8.43
2018-06-16T12:06:41.283Z,3.50
2018-06-16T12:09:11.869Z,5.80
2018-06-16T12:11:40.526Z,7.33
2018-06-16T12:14:10.578Z,6.73
2018-06-16T12:16:39.450Z,3.57
2018-06-16T12:19:08.478Z,4.83
2018-06-16T12:21:37.234Z,4.33
2018-06-16T12:24:06.158Z,21.10
2018-06-16T12:26:34.741Z,5.50
2018-06-16T12:29:03.342Z,3.27
2018-06-16T12:31:31.577Z,5.33
2018-06-16T12:34:00.161Z,5.53
2018-06-16T12:36:28.724Z,4.27
2018-06-16T12:38:57.369Z,8.33
2018-06-16T12:41:26.169Z,5.77
2018-06-16T12:43:54.751Z,3.63
2018-06-16T12:46:23.326Z,4.33
2018-06-16T12:48:52.092Z,3.93
2018-06-16T12:51:21.629Z,2.77
2018-06-16T12:53:49.877Z,3.60
2018-06-16T12:56:18.462Z,3.07
2018-06-16T12:58:47.058Z,3.10
2018-06-16T13:01:15.625Z,3.57
2018-06-16T13:03:45.152Z,2.90
2018-06-16T13:06:13.705Z,3.97
2018-06-16T13:08:42.285Z,2.77
2018-06-16T13:11:12.087Z,8.87
2018-06-16T13:13:40.731Z,4.57
2018-06-16T13:16:09.002Z,2.60
2018-06-16T13:18:37.216Z,3.17
2018-06-16T13:21:05.831Z,3.10
2018-06-16T13:23:34.395Z,3.40
2018-06-16T13:26:02.997Z,4.80
2018-06-16T13:28:31.550Z,4.43
2018-06-16T13:31:00.124Z,3.03
2018-06-16T13:33:28.661Z,3.63
2018-06-16T13:35:57.494Z,4.33
2018-06-16T13:38:26.099Z,2.37
2018-06-16T13:40:55.269Z,2.40
2018-06-16T13:43:23.829Z,3.10
2018-06-16T13:45:52.412Z,4.53
2018-06-16T13:48:20.977Z,4.70
2018-06-16T13:50:49.593Z,2.03
2018-06-16T13:53:18.457Z,3.03
2018-06-16T13:55:47.106Z,3.23
2018-06-16T13:58:15.649Z,4.13
2018-06-16T14:00:44.237Z,2.30
2018-06-16T14:03:12.445Z,3.23
2018-06-16T14:05:41.014Z,2.07
2018-06-16T14:08:09.562Z,3.70
2018-06-16T14:10:38.766Z,2.63
2018-06-16T14:13:07.618Z,3.60
2018-06-16T14:15:36.204Z,3.60
2018-06-16T14:18:05.407Z,3.10
2018-06-16T14:20:34.017Z,4.00
2018-06-16T14:23:02.618Z,2.07
2018-06-16T14:25:31.240Z,2.10
2018-06-16T14:28:00.536Z,4.17
2018-06-16T14:30:29.274Z,3.03
2018-06-16T14:32:57.903Z,2.47
2018-06-16T14:35:26.497Z,4.70
2018-06-16T14:37:55.119Z,1.97
2018-06-16T14:40:24.313Z,2.50
2018-06-16T14:42:53.490Z,1.80
2018-06-16T14:45:22.138Z,2.90
2018-06-16T14:47:50.355Z,1.77
2018-06-16T14:50:18.957Z,3.00
2018-06-16T14:52:47.510Z,2.10
2018-06-16T14:55:16.105Z,6.63
2018-06-16T14:57:44.689Z,2.10
2018-06-16T15:00:13.294Z,2.80
2018-06-16T15:02:41.854Z,2.53
2018-06-16T15:05:10.443Z,5.83
2018-06-16T15:07:39.037Z,1.63
2018-06-16T15:10:07.660Z,3.07
2018-06-16T15:12:36.229Z,2.67
2018-06-16T15:15:05.205Z,3.63
2018-06-16T15:17:33.803Z,2.03
2018-06-16T15:20:02.421Z,3.83
2018-06-16T15:22:30.977Z,5.43
2018-06-16T15:24:59.593Z,2.60
2018-06-16T15:27:27.805Z,3.30
2018-06-16T15:29:56.422Z,3.43
2018-06-16T15:32:24.985Z,3.23
2018-06-16T15:34:53.607Z,5.63
2018-06-16T15:37:22.265Z,1.90
2018-06-16T15:39:50.812Z,3.07
2018-06-16T15:42:19.376Z,3.00
2018-06-16T15:44:47.558Z,1.63
2018-06-16T15:47:15.781Z,2.57
2018-06-16T15:49:44.332Z,1.87
2018-06-16T15:52:12.923Z,1.40
2018-06-16T15:54:41.469Z,3.27
2018-06-16T15:57:10.097Z,3.20
2018-06-16T15:59:38.677Z,2.50
2018-06-16T16:02:07.275Z,4.80
2018-06-16T16:04:35.842Z,3.30
2018-06-16T16:07:04.686Z,2.00
2018-06-16T16:09:33.225Z,3.53
2018-06-16T16:12:01.790Z,4.87
2018-06-16T16:14:30.066Z,3.37
2018-06-16T16:16:58.652Z,2.00
2018-06-16T16:19:27.664Z,2.10
2018-06-16T16:21:56.301Z,2.10
2018-06-16T16:24:24.950Z,3.07
2018-06-16T16:26:53.523Z,2.13
2018-06-16T16:29:22.118Z,2.50
2018-06-16T16:31:51.231Z,2.37
2018-06-16T16:34:19.818Z,2.23
2018-06-16T16:36:48.451Z,4.20
2018-06-16T16:39:16.752Z,4.03
2018-06-16T16:41:46.520Z,2.93
2018-06-16T16:44:15.146Z,3.20
2018-06-16T16:46:43.782Z,2.63
2018-06-16T16:49:12.899Z,3.03
2018-06-16T16:51:41.866Z,3.40
2018-06-16T16:54:10.430Z,3.57
2018-06-16T16:56:39.009Z,3.73
2018-06-16T16:59:07.593Z,3.60
2018-06-16T17:01:36.187Z,3.20
2018-06-16T17:04:04.766Z,2.63
2018-06-16T17:06:34.011Z,3.10
2018-06-16T17:09:02.657Z,9.63
2018-06-16T17:11:31.278Z,2.97
2018-06-16T17:13:59.845Z,4.07
2018-06-16T17:16:29.390Z,3.10
2018-06-16T17:18:58.564Z,3.10
2018-06-16T17:21:28.153Z,2.80
2018-06-16T17:23:56.727Z,2.93
2018-06-16T17:26:25.355Z,5.27
2018-06-16T17:28:53.929Z,2.87
2018-06-16T17:31:22.529Z,5.20
2018-06-16T17:33:50.787Z,3.07
2018-06-16T17:36:19.391Z,3.23
2018-06-16T17:38:47.621Z,3.23
2018-06-16T17:41:16.231Z,2.80
2018-06-16T17:43:44.970Z,2.40
2018-06-16T17:46:13.626Z,4.80
2018-06-16T17:48:42.358Z,3.93
2018-06-16T17:51:10.977Z,4.10
2018-06-16T17:53:39.621Z,3.10
2018-06-16T17:56:08.475Z,5.13
2018-06-16T17:58:36.727Z,4.30
2018-06-16T18:01:05.393Z,4.50
2018-06-16T18:03:33.999Z,4.63
2018-06-16T18:06:02.603Z,20.33
2018-06-16T18:08:31.229Z,3.80
2018-06-16T18:10:59.844Z,5.43
2018-06-16T18:13:28.460Z,3.00
2018-06-16T18:15:57.015Z,2.50
2018-06-16T18:18:25.305Z,3.63
2018-06-16T18:20:53.978Z,5.87
2018-06-16T18:23:22.586Z,3.17
2018-06-16T18:25:51.145Z,6.00
2018-06-16T18:28:19.749Z,5.00
2018-06-16T18:30:48.332Z,7.47
2018-06-16T18:33:18.026Z,4.13
2018-06-16T18:35:47.019Z,6.00
2018-06-16T18:38:16.179Z,4.80
2018-06-16T18:40:44.759Z,2.93
2018-06-16T18:43:13.396Z,4.00
2018-06-16T18:45:42.046Z,5.93
2018-06-16T18:48:10.732Z,2.30
2018-06-16T18:50:40.271Z,4.93
2018-06-16T18:53:08.845Z,7.63
2018-06-16T18:55:37.817Z,13.70
2018-06-16T18:58:06.448Z,32.03
2018-06-16T19:00:35.974Z,12.10
2018-06-16T19:03:04.721Z,7.00
2018-06-16T19:05:34.406Z,7.17
2018-06-16T19:08:03.052Z,8.07
2018-06-16T19:10:31.815Z,8.27
2018-06-16T19:13:00.467Z,9.07
2018-06-16T19:15:29.309Z,5.53
2018-06-16T19:18:04.305Z,6.60
2018-06-16T19:20:32.982Z,5.80
2018-06-16T19:23:01.615Z,3.60
2018-06-16T19:25:30.794Z,4.03
2018-06-16T19:27:59.405Z,3.30
2018-06-16T19:30:29.100Z,3.67
2018-06-16T19:32:58.191Z,3.27
2018-06-16T19:35:27.671Z,4.00
2018-06-16T19:37:56.869Z,3.37
2018-06-16T19:40:25.451Z,6.17
2018-06-16T19:42:54.672Z,3.00
2018-06-16T19:45:23.970Z,4.40
2018-06-16T19:47:52.554Z,5.20
2018-06-16T19:50:21.355Z,5.80
2018-06-16T19:52:49.930Z,4.20
2018-06-16T19:55:19.203Z,5.20
2018-06-16T19:57:47.855Z,7.90
2018-06-16T20:00:16.425Z,8.33
2018-06-16T20:02:45.021Z,15.63
2018-06-16T20:05:13.667Z,4.20
2018-06-16T20:07:42.275Z,8.27
2018-06-16T20:10:10.870Z,9.50
2018-06-16T20:12:39.404Z,6.00
2018-06-16T20:15:07.997Z,7.77
2018-06-16T20:17:36.535Z,5.20
2018-06-16T20:20:06.612Z,6.97
2018-06-16T20:22:35.306Z,5.00
2018-06-16T20:25:03.971Z,9.07
2018-06-16T20:27:32.646Z,8.53
2018-06-16T20:30:01.292Z,11.77
2018-06-16T20:32:30.137Z,11.23
2018-06-16T20:34:58.698Z,9.37
2018-06-16T20:37:27.371Z,8.97
2018-06-16T20:39:55.935Z,11.30
2018-06-16T20:42:24.553Z,8.70
2018-06-16T20:44:53.090Z,8.83
2018-06-16T20:47:21.661Z,12.37
2018-06-16T20:49:51.341Z,13.13
2018-06-16T20:52:20.030Z,18.17
2018-06-16T20:54:48.595Z,15.93
2018-06-16T20:57:17.712Z,19.87
2018-06-16T20:59:46.324Z,14.87
2018-06-16T21:02:14.939Z,14.57
2018-06-16T21:04:43.149Z,11.03
2018-06-16T21:07:11.800Z,11.13
2018-06-16T21:09:40.035Z,8.87
2018-06-16T21:12:08.665Z,5.07
2018-06-16T21:14:37.241Z,8.60
2018-06-16T21:17:05.468Z,10.43
2018-06-16T21:19:34.041Z,5.83
2018-06-16T21:22:02.961Z,4.83
2018-06-16T21:24:31.850Z,4.97
2018-06-16T21:27:00.552Z,9.93
2018-06-16T21:29:29.100Z,6.60
2018-06-16T21:31:57.669Z,5.67
2018-06-16T21:34:26.951Z,5.27
2018-06-16T21:36:55.164Z,7.03
2018-06-16T21:39:24.383Z,4.13
2018-06-16T21:41:54.208Z,4.47
2018-06-16T21:44:22.746Z,10.97
2018-06-16T21:46:51.781Z,5.87
2018-06-16T21:49:20.368Z,6.07
2018-06-16T21:51:48.909Z,6.43
2018-06-16T21:54:17.842Z,5.03
2018-06-16T21:56:46.461Z,7.70
2018-06-16T21:59:14.703Z,8.03
2018-06-16T22:01:43.937Z,7.80
2018-06-16T22:04:12.241Z,5.37
2018-06-16T22:06:40.790Z,6.17
2018-06-16T22:09:09.886Z,6.23
2018-06-16T22:11:38.542Z,5.53
2018-06-16T22:14:07.394Z,5.33
2018-06-16T22:16:36.002Z,5.37
2018-06-16T22:19:04.614Z,5.73
2018-06-16T22:21:34.165Z,6.77
2018-06-16T22:24:02.768Z,7.10
2018-06-16T22:26:31.377Z,6.33
2018-06-16T22:28:59.972Z,5.30
2018-06-16T22:31:28.529Z,7.70
2018-06-16T22:33:57.261Z,5.63
2018-06-16T22:36:25.877Z,9.10
2018-06-16T22:38:54.733Z,6.53
2018-06-16T22:41:23.286Z,6.00
2018-06-16T22:43:51.873Z,4.10
2018-06-16T22:46:20.465Z,6.10
2018-06-16T22:48:49.052Z,6.27
2018-06-16T22:51:17.608Z,4.67
2018-06-16T22:53:47.523Z,6.47
2018-06-16T22:56:16.683Z,4.20
2018-06-16T22:58:44.910Z,5.50
2018-06-16T23:01:13.502Z,7.63
2018-06-16T23:03:42.061Z,5.17
2018-06-16T23:06:11.994Z,7.83
2018-06-16T23:08:40.630Z,18.77
2018-06-16T23:11:08.884Z,5.93
2018-06-16T23:13:37.465Z,5.63
2018-06-16T23:16:06.021Z,8.17
2018-06-16T23:18:35.247Z,5.83
2018-06-16T23:21:03.932Z,8.63
2018-06-16T23:23:32.463Z,8.27
2018-06-16T23:26:01.033Z,7.00
2018-06-16T23:28:29.241Z,6.60
2018-06-16T23:30:57.828Z,5.97
2018-06-16T23:33:26.361Z,5.43
2018-06-16T23:35:54.922Z,5.23
2018-06-16T23:38:23.495Z,5.67
2018-06-16T23:40:52.073Z,4.70
2018-06-16T23:43:20.622Z,4.87
2018-06-16T23:45:49.182Z,6.33
2018-06-16T23:48:17.705Z,5.83
2018-06-16T23:50:46.278Z,5.63
2018-06-16T23:53:14.941Z,8.17
2018-06-16T23:55:44.165Z,5.40
2018-06-16T23:58:12.709Z,5.93
